Time;durP1;ratioP1;P1;durP2;ratioP2;P2;SDS_P1;SDS_P2;PMS_P1;PMS_P2;Temp;Humidity;BMP_temperature;BMP_pressure;BME280_temperature;BME280_humidity;BME280_pressure;Samples;Min_cycle;Max_cycle;Signal;HPM_P1;HPM_P2
2022/11/21 00:01:17;;;;;;;10.20;2.42;;;;;;;;;;5078341;28;20115;-58
2022/11/21 00:03:43;;;;;;;7.68;1.80;;;;;;;;;;5080644;28;20070;-58
2022/11/21 00:06:10;;;;;;;8.50;2.00;;;;;;;;;;5081668;28;20082;-57
2022/11/21 00:08:36;;;;;;;5.75;2.08;;;;;;;;;;5083711;28;20045;-58
2022/11/21 00:11:01;;;;;;;6.68;2.10;;;;;;;;;;5083690;28;20023;-58
2022/11/21 00:13:26;;;;;;;5.90;1.70;;;;;;;;;;5099388;28;20028;-58
2022/11/21 00:15:51;;;;;;;6.22;2.20;;;;;;;;;;5078316;28;20809;-58
2022/11/21 00:18:16;;;;;;;8.25;2.25;;;;;;;;;;5080586;28;20493;-58
2022/11/21 00:20:42;;;;;;;7.25;2.20;;;;;;;;;;5074108;28;20022;-58
2022/11/21 00:23:07;;;;;;;8.07;2.10;;;;;;;;;;5082825;28;20077;-58
2022/11/21 00:25:32;;;;;;;7.18;2.00;;;;;;;;;;5079235;28;20017;-58
2022/11/21 00:27:58;;;;;;;5.47;1.95;;;;;;;;;;5081837;28;20020;-58
2022/11/21 00:30:23;;;;;;;12.10;3.10;;;;;;;;;;5077630;28;20021;-58
2022/11/21 00:32:48;;;;;;;10.98;3.00;;;;;;;;;;5085848;28;20382;-58
2022/11/21 00:35:13;;;;;;;10.98;2.67;;;;;;;;;;5086310;28;20028;-58
2022/11/21 00:37:38;;;;;;;9.30;2.67;;;;;;;;;;5088027;28;20016;-58
2022/11/21 00:40:04;;;;;;;10.30;2.65;;;;;;;;;;5075073;28;20118;-58
2022/11/21 00:42:29;;;;;;;17.63;3.13;;;;;;;;;;5083440;28;20012;-58
2022/11/21 00:44:54;;;;;;;17.05;3.88;;;;;;;;;;5085280;28;20409;-58
2022/11/21 00:47:20;;;;;;;8.27;2.53;;;;;;;;;;5085392;28;20342;-59
2022/11/21 00:49:45;;;;;;;15.57;2.95;;;;;;;;;;5082004;28;20031;-58
2022/11/21 00:52:10;;;;;;;8.45;2.70;;;;;;;;;;5080818;28;20016;-58
2022/11/21 00:54:35;;;;;;;12.25;2.70;;;;;;;;;;5079064;28;20454;-58
2022/11/21 00:57:00;;;;;;;18.92;3.33;;;;;;;;;;5113635;27;20028;-57
2022/11/21 00:59:26;;;;;;;14.80;3.00;;;;;;;;;;5074707;28;20031;-57
2022/11/21 01:01:51;;;;;;;8.30;2.72;;;;;;;;;;5080122;28;20073;-57
2022/11/21 01:04:16;;;;;;;12.02;3.10;;;;;;;;;;5078867;28;20021;-57
2022/11/21 01:06:41;;;;;;;13.75;3.30;;;;;;;;;;5081654;28;20048;-57
2022/11/21 01:09:07;;;;;;;14.00;3.13;;;;;;;;;;5092504;28;20022;-59
2022/11/21 01:11:32;;;;;;;12.95;3.05;;;;;;;;;;5089931;28;20026;-59
2022/11/21 01:13:57;;;;;;;18.13;3.30;;;;;;;;;;5080152;28;20027;-59
2022/11/21 01:16:23;;;;;;;12.77;3.03;;;;;;;;;;5076221;28;20063;-56
2022/11/21 01:18:48;;;;;;;12.55;2.95;;;;;;;;;;5086174;28;20362;-59
2022/11/21 01:21:14;;;;;;;10.23;3.20;;;;;;;;;;5085150;28;20058;-56
2022/11/21 01:23:40;;;;;;;18.02;3.30;;;;;;;;;;5084306;28;20031;-57
2022/11/21 01:26:06;;;;;;;16.05;3.20;;;;;;;;;;5082993;28;20107;-57
2022/11/21 01:28:31;;;;;;;14.93;3.13;;;;;;;;;;5082211;28;20032;-57
2022/11/21 01:31:03;;;;;;;11.77;3.17;;;;;;;;;;5080178;28;20018;-57
2022/11/21 01:33:28;;;;;;;17.48;3.58;;;;;;;;;;5080378;28;20024;-59
2022/11/21 01:35:54;;;;;;;19.50;3.85;;;;;;;;;;5089143;28;20095;-59
2022/11/21 01:38:19;;;;;;;11.20;2.83;;;;;;;;;;5079865;28;20111;-57
2022/11/21 01:40:44;;;;;;;10.15;2.83;;;;;;;;;;5077493;28;20146;-57
2022/11/21 01:43:13;;;;;;;12.18;3.05;;;;;;;;;;5084596;28;20107;-57
2022/11/21 01:45:55;;;;;;;15.90;3.58;;;;;;;;;;5073544;28;20469;-57
2022/11/21 01:48:21;;;;;;;17.00;3.15;;;;;;;;;;5052747;28;20099;-58
2022/11/21 01:50:47;;;;;;;15.50;3.40;;;;;;;;;;5069761;28;20081;-58
2022/11/21 01:53:12;;;;;;;18.77;3.10;;;;;;;;;;5103753;27;20433;-59
2022/11/21 01:55:37;;;;;;;11.30;2.55;;;;;;;;;;5076001;28;20255;-59
2022/11/21 01:58:02;;;;;;;11.25;3.17;;;;;;;;;;5100062;27;20487;-59
2022/11/21 02:00:28;;;;;;;11.60;3.10;;;;;;;;;;5076029;28;20133;-57
2022/11/21 02:02:58;;;;;;;11.52;3.30;;;;;;;;;;5079352;28;20031;-59
2022/11/21 02:05:24;;;;;;;14.30;3.30;;;;;;;;;;5078443;28;20679;-56
2022/11/21 02:07:49;;;;;;;8.68;2.67;;;;;;;;;;5078747;28;20040;-59
2022/11/21 02:10:14;;;;;;;14.93;3.75;;;;;;;;;;5080415;28;20032;-58
2022/11/21 02:12:46;;;;;;;14.77;3.45;;;;;;;;;;5076675;28;20015;-57
2022/11/21 02:15:12;;;;;;;9.63;3.17;;;;;;;;;;5109573;27;20020;-58
2022/11/21 02:17:37;;;;;;;12.25;3.08;;;;;;;;;;5079169;28;20039;-58
2022/11/21 02:20:04;;;;;;;13.27;4.43;;;;;;;;;;5074760;28;20020;-58
2022/11/21 02:22:32;;;;;;;15.38;3.50;;;;;;;;;;5077610;28;20031;-58
2022/11/21 02:24:57;;;;;;;9.80;2.95;;;;;;;;;;5071070;28;20024;-58
2022/11/21 02:27:22;;;;;;;9.38;3.28;;;;;;;;;;5079944;28;20035;-59
2022/11/21 02:29:47;;;;;;;14.32;2.97;;;;;;;;;;5079730;28;20019;-58
2022/11/21 02:32:22;;;;;;;12.60;2.83;;;;;;;;;;5073808;28;20050;-57
2022/11/21 02:34:47;;;;;;;14.35;3.67;;;;;;;;;;5105268;27;20096;-58
2022/11/21 02:37:12;;;;;;;6.80;2.63;;;;;;;;;;5084029;28;20510;-59
2022/11/21 02:39:38;;;;;;;12.00;3.00;;;;;;;;;;5080927;28;20106;-59
2022/11/21 02:42:29;;;;;;;13.85;3.42;;;;;;;;;;5080380;28;20103;-57
2022/11/21 02:45:14;;;;;;;10.52;2.97;;;;;;;;;;5075591;28;20028;-57
2022/11/21 02:47:40;;;;;;;9.35;3.00;;;;;;;;;;5089024;28;20549;-58
2022/11/21 02:50:12;;;;;;;11.85;3.15;;;;;;;;;;5111430;27;20115;-58
2022/11/21 02:52:38;;;;;;;12.15;3.05;;;;;;;;;;5077847;28;20028;-59
2022/11/21 02:55:03;;;;;;;10.77;2.65;;;;;;;;;;5072099;28;20024;-59
2022/11/21 02:57:28;;;;;;;10.40;3.00;;;;;;;;;;5080269;28;20032;-59
2022/11/21 02:59:54;;;;;;;14.50;3.35;;;;;;;;;;5083544;28;20023;-59
2022/11/21 03:02:19;;;;;;;9.68;2.72;;;;;;;;;;5074604;28;20032;-58
2022/11/21 03:04:44;;;;;;;12.52;3.03;;;;;;;;;;5076118;28;20097;-58
2022/11/21 03:07:09;;;;;;;11.65;3.80;;;;;;;;;;5072689;28;20050;-58
2022/11/21 03:09:35;;;;;;;11.13;2.90;;;;;;;;;;5084604;28;20040;-58
2022/11/21 03:12:04;;;;;;;11.68;3.55;;;;;;;;;;5083805;28;20059;-58
2022/11/21 03:14:29;;;;;;;8.07;2.45;;;;;;;;;;5083261;28;20070;-58
2022/11/21 03:16:54;;;;;;;8.55;2.70;;;;;;;;;;5071537;28;20044;-58
2022/11/21 03:19:19;;;;;;;9.40;2.80;;;;;;;;;;5079780;28;20074;-58
2022/11/21 03:21:45;;;;;;;12.65;2.90;;;;;;;;;;5080453;28;20377;-58
2022/11/21 03:24:10;;;;;;;8.15;2.90;;;;;;;;;;5077675;28;20047;-58
2022/11/21 03:26:35;;;;;;;14.88;3.38;;;;;;;;;;5094815;28;20052;-58
2022/11/21 03:29:00;;;;;;;8.93;2.58;;;;;;;;;;5078042;28;20019;-58
2022/11/21 03:31:26;;;;;;;11.55;2.60;;;;;;;;;;5081646;28;20028;-58
2022/11/21 03:33:51;;;;;;;10.05;2.35;;;;;;;;;;5084423;28;20067;-58
2022/11/21 03:36:16;;;;;;;9.73;3.00;;;;;;;;;;5080554;28;20052;-58
2022/11/21 03:38:41;;;;;;;11.60;2.72;;;;;;;;;;5083408;28;20645;-58
2022/11/21 03:41:28;;;;;;;8.10;2.72;;;;;;;;;;5081685;28;20087;-58
2022/11/21 03:43:52;;;;;;;9.27;2.90;;;;;;;;;;5083417;28;20172;-58
2022/11/21 03:46:17;;;;;;;11.98;2.78;;;;;;;;;;5075935;28;20453;-58
2022/11/21 03:48:43;;;;;;;7.20;2.60;;;;;;;;;;5077199;28;20731;-57
2022/11/21 03:51:08;;;;;;;11.70;3.13;;;;;;;;;;5083798;28;20020;-56
2022/11/21 03:53:33;;;;;;;10.73;2.78;;;;;;;;;;5077597;28;20028;-59
2022/11/21 03:55:58;;;;;;;13.82;3.00;;;;;;;;;;5081535;28;20060;-58
2022/11/21 03:58:24;;;;;;;6.70;2.40;;;;;;;;;;5082062;28;20120;-58
2022/11/21 04:00:49;;;;;;;15.68;3.05;;;;;;;;;;5076942;28;20181;-58
2022/11/21 04:03:14;;;;;;;12.93;3.40;;;;;;;;;;5077735;28;20123;-58
2022/11/21 04:05:39;;;;;;;11.45;2.70;;;;;;;;;;5090377;28;20482;-59
2022/11/21 04:08:04;;;;;;;13.65;2.85;;;;;;;;;;5078352;28;20533;-61
2022/11/21 04:10:30;;;;;;;15.38;2.70;;;;;;;;;;5081263;28;20024;-58
2022/11/21 04:12:55;;;;;;;7.65;2.72;;;;;;;;;;5077172;28;20025;-59
2022/11/21 04:15:20;;;;;;;10.57;3.17;;;;;;;;;;5072750;28;20040;-58
2022/11/21 04:17:45;;;;;;;9.02;3.03;;;;;;;;;;5089201;28;20305;-59
2022/11/21 04:20:10;;;;;;;15.68;3.20;;;;;;;;;;5080534;28;20024;-58
2022/11/21 04:22:36;;;;;;;12.70;3.08;;;;;;;;;;5076622;28;20032;-58
2022/11/21 04:25:01;;;;;;;8.80;2.60;;;;;;;;;;5081166;28;20028;-57
2022/11/21 04:27:26;;;;;;;7.28;2.50;;;;;;;;;;5072739;28;20027;-59
2022/11/21 04:29:51;;;;;;;7.55;2.45;;;;;;;;;;5072697;28;20027;-58
2022/11/21 04:32:17;;;;;;;8.65;2.83;;;;;;;;;;5085891;28;20032;-58
2022/11/21 04:34:42;;;;;;;6.53;2.38;;;;;;;;;;5070219;28;20024;-61
2022/11/21 04:37:07;;;;;;;6.03;2.53;;;;;;;;;;5081580;28;20393;-58
2022/11/21 04:39:32;;;;;;;9.23;2.60;;;;;;;;;;5084378;28;20032;-58
2022/11/21 04:41:58;;;;;;;6.00;2.38;;;;;;;;;;5085108;28;20028;-58
2022/11/21 04:44:24;;;;;;;8.63;2.90;;;;;;;;;;5077046;28;20043;-59
2022/11/21 04:46:49;;;;;;;5.55;2.15;;;;;;;;;;5082968;28;20028;-58
2022/11/21 04:49:14;;;;;;;5.68;2.40;;;;;;;;;;5073447;28;20033;-59
2022/11/21 04:51:39;;;;;;;7.30;2.45;;;;;;;;;;5084648;28;20030;-58
2022/11/21 04:54:04;;;;;;;7.47;2.55;;;;;;;;;;5078590;28;20027;-58
2022/11/21 04:56:30;;;;;;;6.97;2.58;;;;;;;;;;5084614;28;20028;-58
2022/11/21 04:58:55;;;;;;;9.68;2.72;;;;;;;;;;5073197;28;20035;-57
2022/11/21 05:01:20;;;;;;;8.50;2.90;;;;;;;;;;5076817;28;20016;-57
2022/11/21 05:03:45;;;;;;;5.15;2.17;;;;;;;;;;5075452;28;20024;-58
2022/11/21 05:06:11;;;;;;;6.28;2.30;;;;;;;;;;5074748;28;20047;-57
2022/11/21 05:08:36;;;;;;;4.03;2.00;;;;;;;;;;5076863;28;20051;-58
2022/11/21 05:13:45;;;;;;;7.22;2.40;;;;;;;;;;5075734;28;20050;-58
2022/11/21 05:16:10;;;;;;;8.65;2.95;;;;;;;;;;5076264;28;20474;-57
2022/11/21 05:18:36;;;;;;;9.95;2.42;;;;;;;;;;5084324;28;20037;-57
2022/11/21 05:21:01;;;;;;;9.25;2.50;;;;;;;;;;5089772;28;20099;-57
2022/11/21 05:23:27;;;;;;;16.02;3.45;;;;;;;;;;5075762;28;20047;-59
2022/11/21 05:25:52;;;;;;;5.88;2.85;;;;;;;;;;5075983;28;20553;-58
2022/11/21 05:28:17;;;;;;;12.60;2.70;;;;;;;;;;5072987;28;20036;-59
2022/11/21 05:30:42;;;;;;;8.82;2.55;;;;;;;;;;5075418;28;20153;-58
2022/11/21 05:33:07;;;;;;;8.27;2.80;;;;;;;;;;5083944;28;20023;-58
2022/11/21 05:35:33;;;;;;;10.85;2.80;;;;;;;;;;5081859;28;20028;-58
2022/11/21 05:37:58;;;;;;;10.73;2.40;;;;;;;;;;5073582;28;20029;-59
2022/11/21 05:40:23;;;;;;;4.22;2.65;;;;;;;;;;5080311;28;20017;-58
2022/11/21 05:45:32;;;;;;;7.20;2.75;;;;;;;;;;5073260;28;20153;-58
2022/11/21 05:47:58;;;;;;;5.47;2.50;;;;;;;;;;5089279;28;20127;-56
2022/11/21 05:50:23;;;;;;;6.65;2.30;;;;;;;;;;5082415;28;20043;-59
2022/11/21 05:52:48;;;;;;;8.50;2.22;;;;;;;;;;5070790;28;20035;-59
2022/11/21 05:55:13;;;;;;;4.93;2.13;;;;;;;;;;5071536;28;20432;-59
2022/11/21 05:57:39;;;;;;;5.35;2.30;;;;;;;;;;5067617;28;20536;-56
2022/11/21 06:00:04;;;;;;;5.53;2.10;;;;;;;;;;5081997;28;20020;-58
2022/11/21 06:05:13;;;;;;;5.57;2.13;;;;;;;;;;5068202;28;20115;-56
2022/11/21 06:07:38;;;;;;;5.15;2.20;;;;;;;;;;5078487;28;20127;-56
2022/11/21 06:10:04;;;;;;;6.38;2.38;;;;;;;;;;5079066;28;20027;-57
2022/11/21 06:12:29;;;;;;;6.15;2.60;;;;;;;;;;5102947;27;20027;-55
2022/11/21 06:14:54;;;;;;;5.65;2.17;;;;;;;;;;5105718;27;20379;-58
2022/11/21 06:17:19;;;;;;;5.30;2.60;;;;;;;;;;5087394;28;20078;-59
2022/11/21 06:19:45;;;;;;;8.65;3.03;;;;;;;;;;5078994;28;20410;-59
2022/11/21 06:22:10;;;;;;;6.60;2.67;;;;;;;;;;5082491;28;20073;-58
2022/11/21 06:24:35;;;;;;;7.85;3.00;;;;;;;;;;5088593;28;20040;-58
2022/11/21 06:27:00;;;;;;;7.55;3.13;;;;;;;;;;5068211;28;20038;-59
2022/11/21 06:29:26;;;;;;;8.15;3.05;;;;;;;;;;5079906;28;20028;-58
2022/11/21 06:31:51;;;;;;;7.80;3.15;;;;;;;;;;5096175;27;20024;-59
2022/11/21 06:34:16;;;;;;;4.93;2.95;;;;;;;;;;5069575;28;20052;-59
2022/11/21 06:36:43;;;;;;;6.78;3.47;;;;;;;;;;5083661;28;20020;-56
2022/11/21 06:39:08;;;;;;;8.43;3.47;;;;;;;;;;5086551;28;20482;-59
2022/11/21 06:41:34;;;;;;;6.95;3.75;;;;;;;;;;5090563;28;20098;-59
2022/11/21 06:44:02;;;;;;;8.85;3.92;;;;;;;;;;5071280;28;20177;-58
2022/11/21 06:46:27;;;;;;;7.43;3.47;;;;;;;;;;5080255;28;20028;-58
2022/11/21 06:48:52;;;;;;;11.18;3.80;;;;;;;;;;5088107;28;20046;-58
2022/11/21 06:51:18;;;;;;;6.82;3.45;;;;;;;;;;5082778;28;20137;-56
2022/11/21 06:53:44;;;;;;;7.75;3.28;;;;;;;;;;5085158;28;20172;-59
2022/11/21 06:56:09;;;;;;;11.05;3.55;;;;;;;;;;5076153;28;20028;-58
2022/11/21 06:58:34;;;;;;;7.00;3.22;;;;;;;;;;5087732;28;20085;-58
2022/11/21 07:01:06;;;;;;;13.63;3.15;;;;;;;;;;5080384;28;20319;-58
2022/11/21 07:03:31;;;;;;;6.22;3.28;;;;;;;;;;5082135;28;20079;-58
2022/11/21 07:06:00;;;;;;;6.90;3.55;;;;;;;;;;5078428;28;20395;-58
2022/11/21 07:08:26;;;;;;;10.93;3.30;;;;;;;;;;5078037;28;20161;-58
2022/11/21 07:10:51;;;;;;;12.48;3.30;;;;;;;;;;5084857;28;20036;-58
2022/11/21 07:13:22;;;;;;;9.77;3.30;;;;;;;;;;5073244;28;20148;-58
2022/11/21 07:15:48;;;;;;;7.45;3.75;;;;;;;;;;5072860;28;20020;-58
2022/11/21 07:18:14;;;;;;;11.48;3.75;;;;;;;;;;5075999;28;20501;-58
2022/11/21 07:20:39;;;;;;;12.73;3.85;;;;;;;;;;5078189;28;20012;-58
2022/11/21 07:23:04;;;;;;;14.13;3.53;;;;;;;;;;5074069;28;20657;-58
2022/11/21 07:25:30;;;;;;;9.57;3.47;;;;;;;;;;5077588;28;20059;-60
2022/11/21 07:27:58;;;;;;;6.85;3.47;;;;;;;;;;5087597;28;20086;-57
2022/11/21 07:30:24;;;;;;;7.05;3.45;;;;;;;;;;5074193;28;20013;-57
2022/11/21 07:32:55;;;;;;;11.15;3.85;;;;;;;;;;5083276;28;20392;-58
2022/11/21 07:35:20;;;;;;;7.72;3.25;;;;;;;;;;5084104;28;20028;-57
2022/11/21 07:37:46;;;;;;;9.02;3.28;;;;;;;;;;5083304;28;20036;-58
2022/11/21 07:40:11;;;;;;;5.95;3.22;;;;;;;;;;5077813;28;20027;-57
2022/11/21 07:42:36;;;;;;;7.68;2.90;;;;;;;;;;5090183;28;20055;-57
2022/11/21 07:45:02;;;;;;;8.48;2.90;;;;;;;;;;5072813;28;20108;-57
2022/11/21 07:47:28;;;;;;;6.07;3.50;;;;;;;;;;5079018;28;20099;-57
2022/11/21 07:49:53;;;;;;;8.95;3.13;;;;;;;;;;5088236;28;20119;-57
2022/11/21 07:52:18;;;;;;;10.90;4.78;;;;;;;;;;5071111;28;20059;-57
2022/11/21 07:54:44;;;;;;;9.15;3.65;;;;;;;;;;5084170;28;20362;-58
2022/11/21 07:57:09;;;;;;;13.80;6.03;;;;;;;;;;5074776;28;20033;-57
2022/11/21 07:59:34;;;;;;;10.25;4.32;;;;;;;;;;5080188;28;20035;-58
2022/11/21 08:01:59;;;;;;;11.35;5.57;;;;;;;;;;5075411;28;20020;-58
2022/11/21 08:04:25;;;;;;;22.65;9.70;;;;;;;;;;5081083;28;20039;-57
2022/11/21 08:06:50;;;;;;;11.57;4.60;;;;;;;;;;5085169;28;20488;-59
2022/11/21 08:09:15;;;;;;;5.65;2.65;;;;;;;;;;5084219;28;20174;-57
2022/11/21 08:11:40;;;;;;;7.80;2.88;;;;;;;;;;5091243;28;20020;-57
2022/11/21 08:14:06;;;;;;;29.90;11.77;;;;;;;;;;5073654;28;20436;-57
2022/11/21 08:16:31;;;;;;;22.02;10.65;;;;;;;;;;5083605;28;20020;-57
2022/11/21 08:18:57;;;;;;;25.52;13.30;;;;;;;;;;5082018;28;20019;-58
2022/11/21 08:21:22;;;;;;;6.07;2.47;;;;;;;;;;5085058;28;20021;-58
2022/11/21 08:23:47;;;;;;;22.50;10.05;;;;;;;;;;5087174;28;20501;-57
2022/11/21 08:26:13;;;;;;;8.90;3.47;;;;;;;;;;5080337;28;20489;-59
2022/11/21 08:28:38;;;;;;;7.60;2.60;;;;;;;;;;5087000;28;20047;-59
2022/11/21 08:31:04;;;;;;;7.45;2.90;;;;;;;;;;5078281;28;20020;-59
2022/11/21 08:33:29;;;;;;;5.70;2.88;;;;;;;;;;5088562;28;20229;-57
2022/11/21 08:35:54;;;;;;;5.68;2.60;;;;;;;;;;5086646;28;20557;-58
2022/11/21 08:38:20;;;;;;;10.20;3.00;;;;;;;;;;5085493;28;20402;-58
2022/11/21 08:40:45;;;;;;;8.65;3.03;;;;;;;;;;5085007;28;20250;-58
2022/11/21 08:43:10;;;;;;;6.43;2.40;;;;;;;;;;5079831;28;20042;-58
2022/11/21 08:45:36;;;;;;;8.82;4.35;;;;;;;;;;5080595;28;20691;-58
2022/11/21 08:48:01;;;;;;;8.55;3.88;;;;;;;;;;5087022;28;20560;-58
2022/11/21 08:50:30;;;;;;;8.85;3.95;;;;;;;;;;5079518;28;20021;-58
2022/11/21 08:53:00;;;;;;;9.98;3.50;;;;;;;;;;5075421;27;20449;-59
2022/11/21 08:55:25;;;;;;;6.47;2.90;;;;;;;;;;5075953;28;20070;-59
2022/11/21 08:57:50;;;;;;;7.82;3.72;;;;;;;;;;5085451;28;20447;-59
2022/11/21 09:00:15;;;;;;;12.60;5.45;;;;;;;;;;5087019;28;20028;-59
2022/11/21 09:02:41;;;;;;;11.23;4.03;;;;;;;;;;5087966;28;20078;-58
2022/11/21 09:05:06;;;;;;;8.90;5.50;;;;;;;;;;5080017;28;20032;-58
2022/11/21 09:07:31;;;;;;;11.75;4.38;;;;;;;;;;5079875;28;20549;-60
2022/11/21 09:09:57;;;;;;;6.53;3.67;;;;;;;;;;5086867;28;20023;-59
2022/11/21 09:12:22;;;;;;;5.75;3.08;;;;;;;;;;5090757;28;20024;-59
2022/11/21 09:20:15;;;;;;;6.80;2.90;;;;;;;;;;5079618;28;20162;-58
2022/11/21 09:22:40;;;;;;;6.70;3.28;;;;;;;;;;5077969;28;20126;-59
2022/11/21 09:25:05;;;;;;;19.33;11.60;;;;;;;;;;5076754;28;20398;-59
2022/11/21 09:27:31;;;;;;;8.35;3.08;;;;;;;;;;5088003;28;20031;-59
2022/11/21 09:29:56;;;;;;;7.13;3.22;;;;;;;;;;5086732;28;20323;-59
2022/11/21 09:32:21;;;;;;;5.55;2.38;;;;;;;;;;5087506;28;20019;-61
2022/11/21 09:34:47;;;;;;;8.63;3.40;;;;;;;;;;5089575;28;20074;-59
2022/11/21 09:37:12;;;;;;;8.77;4.75;;;;;;;;;;5085308;28;20112;-59
2022/11/21 09:39:37;;;;;;;9.00;3.60;;;;;;;;;;5083944;28;20702;-59
2022/11/21 09:42:06;;;;;;;5.32;2.60;;;;;;;;;;5090758;28;20028;-58
2022/11/21 09:44:45;;;;;;;8.77;2.30;;;;;;;;;;5085252;28;20355;-58
2022/11/21 09:47:30;;;;;;;6.07;2.17;;;;;;;;;;5080608;28;20551;-58
2022/11/21 09:49:57;;;;;;;5.38;2.30;;;;;;;;;;5080415;28;20351;-58
2022/11/21 09:52:23;;;;;;;5.18;2.35;;;;;;;;;;5079264;28;20028;-58
2022/11/21 09:54:49;;;;;;;5.85;2.10;;;;;;;;;;5085721;28;20481;-58
2022/11/21 09:57:16;;;;;;;8.10;4.93;;;;;;;;;;5078330;28;20074;-59
2022/11/21 09:59:41;;;;;;;8.27;3.97;;;;;;;;;;5077716;28;20032;-58
2022/11/21 10:02:13;;;;;;;6.70;2.45;;;;;;;;;;5117619;27;20031;-58
2022/11/21 10:04:39;;;;;;;7.70;4.88;;;;;;;;;;5102861;27;20032;-58
2022/11/21 10:07:30;;;;;;;7.88;4.38;;;;;;;;;;5099815;27;20487;-58
2022/11/21 10:10:11;;;;;;;6.22;3.65;;;;;;;;;;5081796;28;20055;-58
2022/11/21 10:12:36;;;;;;;;;;;;;;;;;;5082991;28;20478;-58
2022/11/21 10:15:20;;;;;;;8.90;2.67;;;;;;;;;;5083089;28;20395;-58
2022/11/21 10:18:04;;;;;;;5.90;2.50;;;;;;;;;;5073436;28;20024;-58
2022/11/21 10:20:29;;;;;;;11.27;6.88;;;;;;;;;;5084046;28;20024;-58
2022/11/21 10:23:24;;;;;;;7.38;4.03;;;;;;;;;;5093105;28;20069;-58
2022/11/21 10:25:56;;;;;;;12.07;7.13;;;;;;;;;;5033582;28;20029;-58
2022/11/21 10:28:26;;;;;;;6.63;2.45;;;;;;;;;;5085790;28;20478;-58
2022/11/21 10:30:52;;;;;;;6.75;1.95;;;;;;;;;;5078151;28;20518;-58
2022/11/21 10:33:29;;;;;;;7.20;2.03;;;;;;;;;;5067097;28;20120;-57
2022/11/21 10:35:56;;;;;;;4.10;2.00;;;;;;;;;;5082747;28;20270;-57
2022/11/21 10:38:22;;;;;;;4.88;1.75;;;;;;;;;;5078316;28;20027;-57
2022/11/21 10:40:51;;;;;;;4.32;1.88;;;;;;;;;;5083162;28;20104;-57
2022/11/21 10:46:06;;;;;;;6.55;1.98;;;;;;;;;;5075575;28;20668;-57
2022/11/21 10:48:31;;;;;;;4.35;1.90;;;;;;;;;;5113432;27;20036;-57
2022/11/21 10:51:06;;;;;;;7.60;1.95;;;;;;;;;;5077837;28;20356;-57
2022/11/21 10:56:16;;;;;;;5.60;2.00;;;;;;;;;;5079777;28;20027;-57
2022/11/21 10:58:45;;;;;;;6.68;2.15;;;;;;;;;;5081312;28;20371;-57
2022/11/21 11:01:19;;;;;;;7.45;2.22;;;;;;;;;;5078293;28;20016;-57
2022/11/21 11:03:44;;;;;;;4.22;1.65;;;;;;;;;;5079712;28;20423;-57
2022/11/21 11:06:09;;;;;;;6.30;1.92;;;;;;;;;;5069912;28;20056;-57
2022/11/21 11:08:51;;;;;;;5.40;1.90;;;;;;;;;;5085159;28;20037;-57
2022/11/21 11:11:16;;;;;;;4.88;1.85;;;;;;;;;;5077928;28;20070;-57
2022/11/21 11:14:07;;;;;;;6.47;2.15;;;;;;;;;;5086334;28;20749;-57
2022/11/21 11:16:34;;;;;;;5.15;2.05;;;;;;;;;;5073319;28;20035;-57
2022/11/21 11:19:09;;;;;;;6.97;2.00;;;;;;;;;;5089898;28;20407;-58
2022/11/21 11:21:43;;;;;;;5.45;1.92;;;;;;;;;;5118191;27;20516;-57
2022/11/21 11:24:09;;;;;;;5.68;2.03;;;;;;;;;;5076280;28;20107;-58
2022/11/21 11:26:34;;;;;;;6.00;1.83;;;;;;;;;;5078051;28;20558;-57
2022/11/21 11:29:26;;;;;;;5.80;2.00;;;;;;;;;;5076778;28;20031;-57
2022/11/21 11:31:55;;;;;;;4.75;1.92;;;;;;;;;;5078745;28;20561;-57
2022/11/21 11:34:20;;;;;;;7.18;1.90;;;;;;;;;;5072327;28;20406;-57
2022/11/21 11:37:18;;;;;;;3.70;1.65;;;;;;;;;;5079179;28;20102;-57
2022/11/21 11:40:02;;;;;;;6.97;2.13;;;;;;;;;;5061846;28;20035;-57
2022/11/21 11:48:29;;;;;;;8.45;2.03;;;;;;;;;;5078016;28;20062;-57
2022/11/21 11:50:55;;;;;;;2.97;1.67;;;;;;;;;;5076635;28;20277;-57
2022/11/21 11:53:32;;;;;;;5.55;2.00;;;;;;;;;;5113621;27;20447;-58
2022/11/21 11:56:01;;;;;;;5.32;2.00;;;;;;;;;;5076034;28;20098;-57
2022/11/21 11:58:27;;;;;;;6.65;1.83;;;;;;;;;;5080923;28;20395;-56
2022/11/21 12:00:52;;;;;;;4.63;1.80;;;;;;;;;;5082056;28;20016;-57
2022/11/21 12:03:18;;;;;;;5.38;1.70;;;;;;;;;;5069880;28;20066;-57
2022/11/21 12:06:03;;;;;;;5.47;2.10;;;;;;;;;;5078313;28;20505;-56
2022/11/21 12:08:28;;;;;;;6.13;2.25;;;;;;;;;;5083967;28;20511;-57
2022/11/21 12:13:39;;;;;;;13.07;2.33;;;;;;;;;;5084430;28;20351;-57
2022/11/21 12:16:05;;;;;;;8.55;2.28;;;;;;;;;;5089004;28;20473;-56
2022/11/21 12:18:30;;;;;;;9.35;2.42;;;;;;;;;;5077786;28;20529;-58
2022/11/21 12:21:03;;;;;;;6.78;1.90;;;;;;;;;;5075374;28;20024;-58
2022/11/21 12:23:32;;;;;;;8.90;2.10;;;;;;;;;;5073337;28;20047;-56
2022/11/21 12:26:12;;;;;;;6.95;2.28;;;;;;;;;;5089951;28;20054;-56
2022/11/21 12:28:37;;;;;;;;;;;;;;;;;;5083066;28;20039;-56
2022/11/21 12:31:35;;;;;;;6.78;1.95;;;;;;;;;;5083829;28;19912;-58
2022/11/21 12:34:09;;;;;;;7.63;2.28;;;;;;;;;;5073560;28;20405;-59
2022/11/21 12:36:44;;;;;;;8.75;2.35;;;;;;;;;;5073795;28;20098;-59
2022/11/21 12:39:28;;;;;;;9.90;2.20;;;;;;;;;;5071475;28;20035;-58
2022/11/21 12:44:48;;;;;;;10.07;2.53;;;;;;;;;;5107650;27;20062;-56
2022/11/21 12:47:13;;;;;;;7.82;2.38;;;;;;;;;;5074321;28;20107;-57
2022/11/21 12:55:22;;;;;;;8.90;2.40;;;;;;;;;;5083017;28;20111;-57
2022/11/21 12:57:50;;;;;;;10.57;2.47;;;;;;;;;;5074846;28;20024;-56
2022/11/21 13:00:35;;;;;;;8.10;2.30;;;;;;;;;;5080183;28;20023;-56
2022/11/21 13:03:00;;;;;;;8.57;2.30;;;;;;;;;;5077577;28;20351;-59
2022/11/21 13:05:30;;;;;;;8.50;3.13;;;;;;;;;;5080330;28;20388;-56
2022/11/21 13:07:59;;;;;;;8.25;2.42;;;;;;;;;;5086703;28;20048;-59
2022/11/21 13:10:25;;;;;;;7.07;2.50;;;;;;;;;;5077250;28;20370;-58
2022/11/21 13:12:52;;;;;;;10.00;2.30;;;;;;;;;;5074722;28;20039;-58
2022/11/21 13:15:23;;;;;;;8.88;2.42;;;;;;;;;;5073028;28;20038;-58
2022/11/21 13:17:49;;;;;;;8.73;2.20;;;;;;;;;;5110812;27;20028;-58
2022/11/21 13:20:17;;;;;;;6.75;2.15;;;;;;;;;;5069219;28;20073;-59
2022/11/21 13:22:42;;;;;;;7.80;2.72;;;;;;;;;;5069123;28;20090;-58
2022/11/21 13:25:08;;;;;;;10.70;2.35;;;;;;;;;;5070597;28;20036;-58
2022/11/21 13:27:39;;;;;;;12.55;2.63;;;;;;;;;;5081900;28;20016;-57
2022/11/21 13:30:11;;;;;;;9.07;2.38;;;;;;;;;;5078082;28;20583;-58
2022/11/21 13:32:52;;;;;;;9.70;2.53;;;;;;;;;;5077623;28;20031;-57
2022/11/21 13:35:20;;;;;;;14.05;2.88;;;;;;;;;;5076130;28;20026;-58
2022/11/21 13:37:48;;;;;;;9.40;2.47;;;;;;;;;;5077738;28;20460;-58
2022/11/21 13:40:26;;;;;;;6.28;2.25;;;;;;;;;;5081140;28;20024;-58
2022/11/21 13:43:10;;;;;;;9.07;2.70;;;;;;;;;;5081276;28;20020;-58
2022/11/21 13:45:36;;;;;;;7.65;2.88;;;;;;;;;;5083153;28;20020;-58
2022/11/21 13:48:10;;;;;;;7.03;2.20;;;;;;;;;;5079536;28;20030;-58
2022/11/21 13:50:57;;;;;;;9.73;2.40;;;;;;;;;;5078618;28;20024;-58
2022/11/21 13:53:41;;;;;;;10.60;2.58;;;;;;;;;;5070547;28;20077;-57
2022/11/21 13:56:10;;;;;;;8.43;2.53;;;;;;;;;;5075646;28;20036;-58
2022/11/21 13:58:55;;;;;;;9.65;2.40;;;;;;;;;;5086608;28;20032;-58
2022/11/21 14:01:23;;;;;;;6.82;2.40;;;;;;;;;;5073078;28;20036;-57
2022/11/21 14:03:58;;;;;;;6.68;2.60;;;;;;;;;;5076977;28;20036;-58
2022/11/21 14:06:26;;;;;;;10.15;2.60;;;;;;;;;;5076218;28;20044;-58
2022/11/21 14:09:10;;;;;;;11.65;2.70;;;;;;;;;;5076710;28;20111;-58
2022/11/21 14:11:40;;;;;;;7.50;2.53;;;;;;;;;;5079306;28;20016;-57
2022/11/21 14:14:06;;;;;;;13.10;3.15;;;;;;;;;;5071078;28;20021;-57
2022/11/21 14:16:31;;;;;;;12.38;3.58;;;;;;;;;;5095435;27;20161;-58
2022/11/21 14:18:56;;;;;;;12.82;3.65;;;;;;;;;;5078915;28;20919;-58
2022/11/21 14:21:28;;;;;;;11.15;3.17;;;;;;;;;;5083597;28;20489;-58
2022/11/21 14:24:03;;;;;;;10.95;2.65;;;;;;;;;;5072629;28;20028;-58
2022/11/21 14:26:38;;;;;;;9.45;2.20;;;;;;;;;;5077223;28;20036;-58
2022/11/21 14:29:22;;;;;;;6.43;2.28;;;;;;;;;;5073978;28;20024;-58
2022/11/21 14:31:48;;;;;;;9.80;2.42;;;;;;;;;;5076089;28;20028;-61
2022/11/21 14:34:22;;;;;;;8.30;2.92;;;;;;;;;;5075618;28;20430;-58
2022/11/21 14:36:47;;;;;;;12.73;2.85;;;;;;;;;;5075528;28;20020;-58
2022/11/21 14:39:13;;;;;;;8.07;2.95;;;;;;;;;;5076613;28;20490;-58
2022/11/21 14:41:38;;;;;;;6.18;2.80;;;;;;;;;;5074977;28;20050;-58
2022/11/21 14:44:05;;;;;;;9.00;2.60;;;;;;;;;;5071309;28;20028;-58
2022/11/21 14:46:34;;;;;;;7.65;2.30;;;;;;;;;;5082583;28;20016;-58
2022/11/21 14:49:15;;;;;;;9.65;2.58;;;;;;;;;;5076670;28;20047;-57
2022/11/21 14:51:40;;;;;;;;;;;;;;;;;;5077175;28;20024;-58
2022/11/21 14:54:09;;;;;;;6.45;2.15;;;;;;;;;;5077542;28;20406;-58
2022/11/21 14:56:34;;;;;;;10.00;3.20;;;;;;;;;;5118838;27;20319;-58
2022/11/21 14:59:00;;;;;;;22.63;9.07;;;;;;;;;;5081576;28;20032;-58
2022/11/21 15:01:29;;;;;;;14.48;4.57;;;;;;;;;;5072873;28;20028;-58
2022/11/21 15:03:58;;;;;;;15.50;3.70;;;;;;;;;;5073262;28;20031;-58
2022/11/21 15:06:25;;;;;;;14.75;3.47;;;;;;;;;;5078050;28;20044;-58
2022/11/21 15:08:50;;;;;;;39.95;20.80;;;;;;;;;;5076030;28;20136;-57
2022/11/21 15:11:15;;;;;;;26.55;15.27;;;;;;;;;;5069704;28;20394;-58
2022/11/21 15:13:41;;;;;;;27.45;12.10;;;;;;;;;;5072712;28;20024;-57
2022/11/21 15:16:06;;;;;;;22.17;10.82;;;;;;;;;;5104751;27;20024;-58
2022/11/21 15:18:32;;;;;;;38.35;16.38;;;;;;;;;;5075270;28;20039;-58